sensor_id;sensor_type;location;lat;lon;timestamp;pressure;altitude;pressure_sealevel;temperature;humidity
37860;BME280;23698;52.014;5.190;2023-08-31T05:02:56;100804.09;;;18.07;100.00
37860;BME280;23698;52.014;5.190;2023-08-31T05:05:42;100805.81;;;17.61;100.00
37860;BME280;23698;52.014;5.190;2023-08-31T05:08:29;100808.53;;;18.37;100.00
37860;BME280;23698;52.014;5.190;2023-08-31T05:11:15;100810.06;;;18.45;100.00
37860;BME280;23698;52.014;5.190;2023-08-31T05:14:01;100811.13;;;18.15;100.00
37860;BME280;23698;52.014;5.190;2023-08-31T06:07:29;100838.56;;;18.56;100.00
37860;BME280;23698;52.014;5.190;2023-08-31T06:10:16;100846.28;;;18.30;100.00
37860;BME280;23698;52.014;5.190;2023-08-31T06:13:03;100849.91;;;18.47;100.00
37860;BME280;23698;52.014;5.190;2023-08-31T06:15:49;100849.94;;;18.36;100.00
37860;BME280;23698;52.014;5.190;2023-08-31T06:18:36;100849.53;;;18.84;100.00
37860;BME280;23698;52.014;5.190;2023-08-31T06:21:22;100846.50;;;18.28;100.00
37860;BME280;23698;52.014;5.190;2023-08-31T06:24:10;100843.47;;;18.01;100.00
37860;BME280;23698;52.014;5.190;2023-08-31T06:26:58;100840.25;;;18.04;100.00
37860;BME280;23698;52.014;5.190;2023-08-31T06:29:44;100853.63;;;17.65;100.00
37860;BME280;23698;52.014;5.190;2023-08-31T06:32:30;100856.69;;;18.57;100.00
37860;BME280;23698;52.014;5.190;2023-08-31T06:35:18;100855.94;;;18.61;100.00
37860;BME280;23698;52.014;5.190;2023-08-31T06:38:06;100851.09;;;17.99;100.00
37860;BME280;23698;52.014;5.190;2023-08-31T06:40:55;100860.44;;;18.39;100.00
37860;BME280;23698;52.014;5.190;2023-08-31T06:43:44;100869.47;;;19.59;100.00
37860;BME280;23698;52.014;5.190;2023-08-31T06:46:31;100874.91;;;19.37;100.00
37860;BME280;23698;52.014;5.190;2023-08-31T06:49:19;100876.22;;;19.86;100.00
37860;BME280;23698;52.014;5.190;2023-08-31T06:52:06;100885.06;;;19.88;100.00
37860;BME280;23698;52.014;5.190;2023-08-31T06:55:13;100884.91;;;20.16;100.00
37860;BME280;23698;52.014;5.190;2023-08-31T06:58:01;100883.34;;;20.92;100.00
37860;BME280;23698;52.014;5.190;2023-08-31T07:00:48;100889.72;;;20.70;100.00
37860;BME280;23698;52.014;5.190;2023-08-31T07:03:37;100914.50;;;20.48;100.00
37860;BME280;23698;52.014;5.190;2023-08-31T07:06:24;100912.56;;;20.27;100.00
37860;BME280;23698;52.014;5.190;2023-08-31T07:09:10;100915.97;;;20.56;100.00
37860;BME280;23698;52.014;5.190;2023-08-31T10:12:35;100988.13;;;24.20;100.00
37860;BME280;23698;52.014;5.190;2023-08-31T14:47:56;101013.59;;;27.23;70.48
37860;BME280;23698;52.014;5.190;2023-08-31T14:50:42;101019.22;;;28.40;68.77
37860;BME280;23698;52.014;5.190;2023-08-31T14:53:29;101014.53;;;27.56;73.25
37860;BME280;23698;52.014;5.190;2023-08-31T14:56:15;101022.06;;;28.21;72.59
37860;BME280;23698;52.014;5.190;2023-08-31T14:59:02;101021.19;;;27.93;70.77
37860;BME280;23698;52.014;5.190;2023-08-31T15:36:38;101036.16;;;29.78;60.54
37860;BME280;23698;52.014;5.190;2023-08-31T15:39:26;101036.38;;;30.44;55.40
37860;BME280;23698;52.014;5.190;2023-08-31T15:42:15;101032.41;;;30.36;57.33
37860;BME280;23698;52.014;5.190;2023-08-31T15:45:04;101038.09;;;30.94;55.50
37860;BME280;23698;52.014;5.190;2023-08-31T15:47:51;101034.88;;;30.38;53.53
37860;BME280;23698;52.014;5.190;2023-08-31T15:50:37;101040.94;;;28.99;64.88
37860;BME280;23698;52.014;5.190;2023-08-31T15:53:25;101038.66;;;29.01;60.60
37860;BME280;23698;52.014;5.190;2023-08-31T15:56:13;101042.25;;;29.66;60.65
37860;BME280;23698;52.014;5.190;2023-08-31T15:59:00;101040.00;;;28.01;57.55
37860;BME280;23698;52.014;5.190;2023-08-31T16:01:46;101051.59;;;27.71;63.22
37860;BME280;23698;52.014;5.190;2023-08-31T16:04:33;101046.94;;;27.66;78.64
37860;BME280;23698;52.014;5.190;2023-08-31T16:07:19;101050.56;;;27.04;67.63
37860;BME280;23698;52.014;5.190;2023-08-31T16:10:07;101046.16;;;27.79;68.28
37860;BME280;23698;52.014;5.190;2023-08-31T16:12:54;101039.34;;;27.53;64.59
37860;BME280;23698;52.014;5.190;2023-08-31T16:18:43;101040.78;;;26.88;67.30
37860;BME280;23698;52.014;5.190;2023-08-31T16:21:29;101045.63;;;26.77;73.84
37860;BME280;23698;52.014;5.190;2023-08-31T16:24:15;101050.75;;;28.55;69.96
37860;BME280;23698;52.014;5.190;2023-08-31T16:27:03;101050.63;;;30.02;64.07
37860;BME280;23698;52.014;5.190;2023-08-31T16:29:51;101049.19;;;30.13;56.05
37860;BME280;23698;52.014;5.190;2023-08-31T16:32:37;101043.25;;;29.84;56.33
37860;BME280;23698;52.014;5.190;2023-08-31T16:35:26;101049.09;;;28.95;56.91
37860;BME280;23698;52.014;5.190;2023-08-31T16:38:14;101048.81;;;29.84;56.37
37860;BME280;23698;52.014;5.190;2023-08-31T16:41:00;101048.88;;;29.19;58.17
37860;BME280;23698;52.014;5.190;2023-08-31T16:43:52;101050.09;;;28.44;59.15
37860;BME280;23698;52.014;5.190;2023-08-31T16:46:40;101050.69;;;28.27;61.95
37860;BME280;23698;52.014;5.190;2023-08-31T16:49:26;101054.38;;;27.90;63.96
37860;BME280;23698;52.014;5.190;2023-08-31T16:56:14;101058.00;;;26.31;73.76
37860;BME280;23698;52.014;5.190;2023-08-31T16:59:02;101056.47;;;26.20;81.38
37860;BME280;23698;52.014;5.190;2023-08-31T17:01:52;101052.59;;;26.21;78.14
37860;BME280;23698;52.014;5.190;2023-08-31T17:04:40;101047.59;;;25.39;83.46
37860;BME280;23698;52.014;5.190;2023-08-31T17:07:27;101052.56;;;25.47;82.75
37860;BME280;23698;52.014;5.190;2023-08-31T17:10:15;101057.78;;;25.54;89.65
37860;BME280;23698;52.014;5.190;2023-08-31T17:13:02;101063.25;;;25.09;87.62
37860;BME280;23698;52.014;5.190;2023-08-31T17:15:50;101059.53;;;25.44;88.13
37860;BME280;23698;52.014;5.190;2023-08-31T17:18:36;101062.13;;;25.25;93.51
37860;BME280;23698;52.014;5.190;2023-08-31T17:21:23;101063.34;;;24.94;90.69
37860;BME280;23698;52.014;5.190;2023-08-31T17:24:12;101047.44;;;25.25;91.49
37860;BME280;23698;52.014;5.190;2023-08-31T17:26:58;101064.28;;;24.43;89.15
37860;BME280;23698;52.014;5.190;2023-08-31T17:29:44;101058.03;;;25.08;89.05
37860;BME280;23698;52.014;5.190;2023-08-31T17:32:37;101066.78;;;25.30;96.77
37860;BME280;23698;52.014;5.190;2023-08-31T17:35:33;101063.25;;;25.09;91.19
37860;BME280;23698;52.014;5.190;2023-08-31T17:38:24;101066.47;;;25.37;91.71
37860;BME280;23698;52.014;5.190;2023-08-31T17:41:12;101071.47;;;24.39;94.19
37860;BME280;23698;52.014;5.190;2023-08-31T17:43:58;101070.78;;;25.03;94.71
37860;BME280;23698;52.014;5.190;2023-08-31T17:46:47;101077.22;;;24.94;91.48
37860;BME280;23698;52.014;5.190;2023-08-31T17:49:39;101069.78;;;24.68;97.13
37860;BME280;23698;52.014;5.190;2023-08-31T17:52:28;101067.31;;;24.57;93.73
37860;BME280;23698;52.014;5.190;2023-08-31T17:55:23;101061.25;;;24.19;100.00
37860;BME280;23698;52.014;5.190;2023-08-31T17:58:18;101063.19;;;24.18;100.00
37860;BME280;23698;52.014;5.190;2023-08-31T18:01:06;101070.66;;;24.02;100.00
37860;BME280;23698;52.014;5.190;2023-08-31T18:03:55;101067.06;;;23.97;100.00
37860;BME280;23698;52.014;5.190;2023-08-31T18:06:43;101061.22;;;23.78;100.00
37860;BME280;23698;52.014;5.190;2023-08-31T18:09:34;101059.56;;;23.77;100.00
37860;BME280;23698;52.014;5.190;2023-08-31T18:12:23;101064.22;;;23.66;100.00
37860;BME280;23698;52.014;5.190;2023-08-31T18:15:09;101073.09;;;23.58;100.00
37860;BME280;23698;52.014;5.190;2023-08-31T18:17:56;101076.13;;;23.56;100.00
37860;BME280;23698;52.014;5.190;2023-08-31T18:20:42;101072.44;;;23.25;100.00
37860;BME280;23698;52.014;5.190;2023-08-31T18:23:30;101073.16;;;23.05;100.00
37860;BME280;23698;52.014;5.190;2023-08-31T18:26:17;101068.13;;;22.91;100.00
37860;BME280;23698;52.014;5.190;2023-08-31T18:29:03;101063.88;;;22.68;100.00
37860;BME280;23698;52.014;5.190;2023-08-31T18:31:50;101058.06;;;22.65;100.00
37860;BME280;23698;52.014;5.190;2023-08-31T18:34:37;101075.16;;;22.61;100.00
37860;BME280;23698;52.014;5.190;2023-08-31T18:37:24;101070.63;;;22.45;100.00
37860;BME280;23698;52.014;5.190;2023-08-31T18:40:13;101081.03;;;22.33;100.00
37860;BME280;23698;52.014;5.190;2023-08-31T18:43:00;101071.69;;;22.39;100.00
37860;BME280;23698;52.014;5.190;2023-08-31T18:45:47;101074.78;;;22.48;100.00
37860;BME280;23698;52.014;5.190;2023-08-31T18:48:33;101072.53;;;22.39;100.00
37860;BME280;23698;52.014;5.190;2023-08-31T18:51:20;101082.66;;;22.29;100.00
37860;BME280;23698;52.014;5.190;2023-08-31T18:54:06;101081.78;;;22.23;100.00
37860;BME280;23698;52.014;5.190;2023-08-31T18:56:54;101083.63;;;22.12;100.00
37860;BME280;23698;52.014;5.190;2023-08-31T18:59:40;101082.53;;;22.18;100.00
37860;BME280;23698;52.014;5.190;2023-08-31T19:15:00;101097.66;;;21.51;100.00
37860;BME280;23698;52.014;5.190;2023-08-31T19:17:49;101108.28;;;21.42;100.00
37860;BME280;23698;52.014;5.190;2023-08-31T19:20:37;101104.97;;;21.45;100.00
37860;BME280;23698;52.014;5.190;2023-08-31T19:23:24;101103.03;;;21.41;100.00
37860;BME280;23698;52.014;5.190;2023-08-31T19:26:10;101112.31;;;21.57;100.00
37860;BME280;23698;52.014;5.190;2023-08-31T19:28:59;101124.13;;;21.52;100.00
37860;BME280;23698;52.014;5.190;2023-08-31T19:31:48;101117.59;;;21.58;100.00
37860;BME280;23698;52.014;5.190;2023-08-31T19:34:34;101114.78;;;21.53;100.00
37860;BME280;23698;52.014;5.190;2023-08-31T19:37:23;101113.69;;;21.81;100.00
37860;BME280;23698;52.014;5.190;2023-08-31T19:40:12;101117.38;;;21.92;100.00
37860;BME280;23698;52.014;5.190;2023-08-31T19:42:59;101120.63;;;22.16;100.00
37860;BME280;23698;52.014;5.190;2023-08-31T19:45:46;101122.22;;;22.39;100.00
37860;BME280;23698;52.014;5.190;2023-08-31T19:48:33;101120.28;;;22.40;100.00
37860;BME280;23698;52.014;5.190;2023-08-31T19:51:21;101110.22;;;22.61;100.00
37860;BME280;23698;52.014;5.190;2023-08-31T19:54:07;101116.44;;;22.41;100.00
37860;BME280;23698;52.014;5.190;2023-08-31T19:56:55;101122.34;;;22.55;100.00
37860;BME280;23698;52.014;5.190;2023-08-31T19:59:43;101119.69;;;22.70;100.00
37860;BME280;23698;52.014;5.190;2023-08-31T20:02:44;101127.13;;;22.65;100.00
37860;BME280;23698;52.014;5.190;2023-08-31T20:05:31;101124.06;;;22.66;100.00
37860;BME280;23698;52.014;5.190;2023-08-31T20:08:18;101129.00;;;23.02;100.00
37860;BME280;23698;52.014;5.190;2023-08-31T20:11:05;101124.47;;;22.85;100.00
37860;BME280;23698;52.014;5.190;2023-08-31T20:13:51;101121.25;;;22.98;100.00
37860;BME280;23698;52.014;5.190;2023-08-31T20:16:41;101122.88;;;22.94;100.00
37860;BME280;23698;52.014;5.190;2023-08-31T20:19:29;101126.25;;;23.02;100.00
37860;BME280;23698;52.014;5.190;2023-08-31T20:22:16;101121.38;;;23.19;100.00
37860;BME280;23698;52.014;5.190;2023-08-31T20:25:03;101126.63;;;23.15;100.00
37860;BME280;23698;52.014;5.190;2023-08-31T20:27:49;101123.59;;;23.22;100.00
37860;BME280;23698;52.014;5.190;2023-08-31T20:30:36;101123.25;;;23.08;100.00
37860;BME280;23698;52.014;5.190;2023-08-31T20:33:22;101116.44;;;23.26;100.00
37860;BME280;23698;52.014;5.190;2023-08-31T20:36:09;101122.03;;;23.47;100.00
37860;BME280;23698;52.014;5.190;2023-08-31T20:38:57;101128.41;;;23.47;100.00
37860;BME280;23698;52.014;5.190;2023-08-31T20:41:44;101124.78;;;23.42;100.00
37860;BME280;23698;52.014;5.190;2023-08-31T20:44:30;101129.91;;;23.81;100.00
37860;BME280;23698;52.014;5.190;2023-08-31T20:47:17;101127.34;;;23.74;100.00
37860;BME280;23698;52.014;5.190;2023-08-31T20:50:04;101135.56;;;23.38;100.00
37860;BME280;23698;52.014;5.190;2023-08-31T20:52:51;101138.03;;;23.29;100.00
37860;BME280;23698;52.014;5.190;2023-08-31T20:55:39;101134.91;;;23.15;100.00
37860;BME280;23698;52.014;5.190;2023-08-31T20:58:25;101131.88;;;23.22;100.00
37860;BME280;23698;52.014;5.190;2023-08-31T21:01:12;101129.44;;;23.31;100.00
37860;BME280;23698;52.014;5.190;2023-08-31T21:03:59;101139.75;;;22.23;100.00
37860;BME280;23698;52.014;5.190;2023-08-31T21:06:46;101144.50;;;22.28;100.00
37860;BME280;23698;52.014;5.190;2023-08-31T21:09:33;101139.81;;;23.08;100.00
37860;BME280;23698;52.014;5.190;2023-08-31T21:12:21;101136.00;;;23.14;100.00
37860;BME280;23698;52.014;5.190;2023-08-31T21:15:07;101133.38;;;22.97;100.00
37860;BME280;23698;52.014;5.190;2023-08-31T21:17:54;101135.19;;;22.76;100.00
37860;BME280;23698;52.014;5.190;2023-08-31T21:20:40;101134.75;;;22.90;100.00
37860;BME280;23698;52.014;5.190;2023-08-31T21:23:26;101138.84;;;22.87;100.00
37860;BME280;23698;52.014;5.190;2023-08-31T21:26:13;101138.31;;;22.90;100.00
37860;BME280;23698;52.014;5.190;2023-08-31T21:29:01;101133.06;;;22.89;100.00
37860;BME280;23698;52.014;5.190;2023-08-31T21:31:47;101141.44;;;21.97;100.00
37860;BME280;23698;52.014;5.190;2023-08-31T21:34:34;101128.78;;;22.66;100.00
37860;BME280;23698;52.014;5.190;2023-08-31T21:37:20;101133.81;;;23.22;100.00
37860;BME280;23698;52.014;5.190;2023-08-31T21:40:07;101134.94;;;23.26;100.00
37860;BME280;23698;52.014;5.190;2023-08-31T21:42:54;101128.28;;;23.22;100.00
37860;BME280;23698;52.014;5.190;2023-08-31T21:45:42;101131.09;;;23.32;100.00
37860;BME280;23698;52.014;5.190;2023-08-31T21:48:29;101137.47;;;23.32;100.00
37860;BME280;23698;52.014;5.190;2023-08-31T21:51:15;101135.34;;;23.65;100.00
37860;BME280;23698;52.014;5.190;2023-08-31T21:54:02;101135.56;;;23.48;100.00
37860;BME280;23698;52.014;5.190;2023-08-31T21:56:48;101127.53;;;23.36;100.00
37860;BME280;23698;52.014;5.190;2023-08-31T21:59:34;101126.78;;;23.67;100.00
37860;BME280;23698;52.014;5.190;2023-08-31T22:02:22;101131.88;;;23.22;100.00
37860;BME280;23698;52.014;5.190;2023-08-31T22:05:08;101124.19;;;23.29;100.00
37860;BME280;23698;52.014;5.190;2023-08-31T22:07:55;101124.19;;;23.34;100.00
37860;BME280;23698;52.014;5.190;2023-08-31T22:10:41;101132.78;;;23.43;100.00
37860;BME280;23698;52.014;5.190;2023-08-31T22:13:28;101139.50;;;22.24;100.00
